createdAt,value
2022-12-26T00:01:40.802Z,11.44
2022-12-26T00:04:08.828Z,11.44
2022-12-26T00:06:56.674Z,11.40
2022-12-26T00:09:24.372Z,11.40
2022-12-26T00:11:52.673Z,11.39
2022-12-26T00:14:20.350Z,11.36
2022-12-26T00:16:48.311Z,11.38
2022-12-26T00:19:16.181Z,11.36
2022-12-26T00:21:44.199Z,11.35
2022-12-26T00:24:12.309Z,11.31
2022-12-26T00:26:40.283Z,11.28
2022-12-26T00:29:07.986Z,11.29
2022-12-26T00:31:36.610Z,11.29
2022-12-26T00:34:04.290Z,11.28
2022-12-26T00:36:34.122Z,11.27
2022-12-26T00:39:03.094Z,11.26
2022-12-26T00:41:32.039Z,11.21
2022-12-26T00:44:00.905Z,11.21
2022-12-26T00:46:29.014Z,11.18
2022-12-26T00:48:56.774Z,11.18
2022-12-26T00:51:25.019Z,11.17
2022-12-26T00:53:52.625Z,11.16
2022-12-26T00:56:20.818Z,11.14
2022-12-26T00:58:48.388Z,11.13
2022-12-26T01:01:21.775Z,11.12
2022-12-26T01:03:51.096Z,11.08
2022-12-26T01:06:19.116Z,11.08
2022-12-26T01:08:46.954Z,10.98
2022-12-26T01:11:37.432Z,10.93
2022-12-26T01:14:05.453Z,10.88
2022-12-26T01:16:33.698Z,10.82
2022-12-26T01:19:02.374Z,10.77
2022-12-26T01:21:30.282Z,10.72
2022-12-26T01:23:57.834Z,10.68
2022-12-26T01:26:25.869Z,10.67
2022-12-26T01:28:54.325Z,10.68
2022-12-26T01:31:23.361Z,10.65
2022-12-26T01:33:50.936Z,10.60
2022-12-26T01:36:19.461Z,10.58
2022-12-26T01:38:47.168Z,10.59
2022-12-26T01:41:20.629Z,10.61
2022-12-26T01:44:03.267Z,10.63
2022-12-26T01:46:44.501Z,10.69
2022-12-26T01:49:37.566Z,10.71
2022-12-26T01:52:15.243Z,10.74
2022-12-26T01:54:48.743Z,10.77
2022-12-26T01:57:24.657Z,10.79
2022-12-26T01:59:53.792Z,10.82
2022-12-26T02:02:22.022Z,10.83
2022-12-26T02:05:10.526Z,10.82
2022-12-26T02:07:46.380Z,10.88
2022-12-26T02:10:23.912Z,10.88
2022-12-26T02:12:52.866Z,10.90
2022-12-26T02:15:20.520Z,10.93
2022-12-26T02:17:48.444Z,10.96
2022-12-26T02:20:17.832Z,11.02
2022-12-26T02:23:03.842Z,11.04
2022-12-26T02:26:26.257Z,11.06
2022-12-26T02:28:57.159Z,11.06
2022-12-26T02:31:53.449Z,11.08
2022-12-26T02:34:51.695Z,11.13
2022-12-26T02:38:07.590Z,11.18
2022-12-26T02:40:42.920Z,11.18
2022-12-26T02:43:31.453Z,11.20
2022-12-26T02:47:02.701Z,11.21
2022-12-26T02:50:16.891Z,11.20
2022-12-26T02:53:21.736Z,11.21
2022-12-26T02:56:11.992Z,11.21
2022-12-26T02:59:13.923Z,11.15
2022-12-26T03:02:07.026Z,11.06
2022-12-26T03:04:55.788Z,10.97
2022-12-26T03:07:49.029Z,10.95
2022-12-26T03:10:42.781Z,10.96
2022-12-26T03:13:28.744Z,10.99
2022-12-26T03:16:29.925Z,11.03
2022-12-26T03:19:06.235Z,10.99
2022-12-26T03:21:43.620Z,10.95
2022-12-26T03:24:16.063Z,10.96
2022-12-26T03:26:54.608Z,10.95
2022-12-26T03:29:42.429Z,10.92
2022-12-26T03:32:12.782Z,10.79
2022-12-26T03:34:44.961Z,10.72
2022-12-26T03:37:49.706Z,10.69
2022-12-26T03:40:52.632Z,10.63
2022-12-26T03:43:52.607Z,10.52
2022-12-26T03:47:23.860Z,10.45
2022-12-26T03:50:19.905Z,10.43
2022-12-26T03:53:40.235Z,10.46
2022-12-26T03:57:01.977Z,10.45
2022-12-26T04:00:20.711Z,10.46
2022-12-26T04:03:08.972Z,10.54
2022-12-26T04:05:59.731Z,10.62
2022-12-26T04:09:31.407Z,10.71
2022-12-26T04:12:20.393Z,10.68
2022-12-26T04:15:33.528Z,10.64
2022-12-26T04:18:36.923Z,10.61
2022-12-26T04:21:45.588Z,10.57
2022-12-26T04:24:41.640Z,10.56
2022-12-26T04:27:34.057Z,10.56
2022-12-26T04:30:20.433Z,10.57
2022-12-26T04:33:13.262Z,10.56
2022-12-26T04:36:10.392Z,10.55
2022-12-26T04:39:07.821Z,10.52
2022-12-26T04:41:55.635Z,10.47
2022-12-26T04:44:26.476Z,10.46
2022-12-26T04:46:56.119Z,10.42
2022-12-26T04:49:42.593Z,10.37
2022-12-26T04:52:14.770Z,10.29
2022-12-26T04:54:42.869Z,10.20
2022-12-26T04:57:11.816Z,10.18
2022-12-26T04:59:39.764Z,10.18
2022-12-26T05:02:27.150Z,10.17
2022-12-26T05:05:13.932Z,10.22
2022-12-26T05:08:00.128Z,10.29
2022-12-26T05:10:29.413Z,10.28
2022-12-26T05:12:57.015Z,10.28
2022-12-26T05:15:25.055Z,10.25
2022-12-26T05:18:11.480Z,10.22
2022-12-26T05:20:58.565Z,10.19
2022-12-26T05:23:46.809Z,10.17
2022-12-26T05:26:40.805Z,10.15
2022-12-26T05:29:08.613Z,10.18
2022-12-26T05:31:37.377Z,10.20
2022-12-26T05:34:17.631Z,10.23
2022-12-26T05:36:50.237Z,10.19
2022-12-26T05:39:18.133Z,10.23
2022-12-26T05:41:46.353Z,10.25
2022-12-26T05:44:15.165Z,10.29
2022-12-26T05:46:43.685Z,10.29
2022-12-26T05:49:11.490Z,10.27
2022-12-26T05:51:39.421Z,10.24
2022-12-26T05:54:06.994Z,10.24
2022-12-26T05:56:34.901Z,10.25
2022-12-26T05:59:02.518Z,10.26
2022-12-26T06:01:31.127Z,10.24
2022-12-26T06:04:00.680Z,10.29
2022-12-26T06:06:29.712Z,10.38
2022-12-26T06:08:57.977Z,10.45
2022-12-26T06:11:27.098Z,10.52
2022-12-26T06:13:55.810Z,10.63
2022-12-26T06:16:24.359Z,10.87
2022-12-26T06:18:52.158Z,11.13
2022-12-26T06:21:21.989Z,11.37
2022-12-26T06:23:50.322Z,11.60
2022-12-26T06:26:18.985Z,11.81
2022-12-26T06:28:47.711Z,11.81
2022-12-26T06:31:23.860Z,11.73
2022-12-26T06:33:58.405Z,11.62
2022-12-26T06:36:28.607Z,11.49
2022-12-26T06:38:58.149Z,11.42
2022-12-26T06:41:26.367Z,11.44
2022-12-26T06:43:55.903Z,11.44
2022-12-26T06:46:25.383Z,11.42
2022-12-26T06:48:54.593Z,11.34
2022-12-26T06:51:26.570Z,11.29
2022-12-26T06:53:54.806Z,11.26
2022-12-26T06:56:26.233Z,11.20
2022-12-26T06:59:00.313Z,11.16
2022-12-26T07:01:30.233Z,11.09
2022-12-26T07:03:58.772Z,11.02
2022-12-26T07:06:36.449Z,11.02
2022-12-26T07:09:13.225Z,10.99
2022-12-26T07:11:44.144Z,10.93
2022-12-26T07:14:12.780Z,10.92
2022-12-26T07:16:43.201Z,10.90
2022-12-26T07:19:14.009Z,10.89
2022-12-26T07:21:42.336Z,10.84
2022-12-26T07:24:21.300Z,10.85
2022-12-26T07:26:49.914Z,10.89
2022-12-26T07:29:18.447Z,10.92
2022-12-26T07:31:46.207Z,10.91
2022-12-26T07:34:14.508Z,10.85
2022-12-26T07:36:42.615Z,10.81
2022-12-26T07:39:14.617Z,10.83
2022-12-26T07:41:57.495Z,10.84
2022-12-26T07:44:28.333Z,10.90
2022-12-26T07:46:57.559Z,10.94
2022-12-26T07:49:25.669Z,10.93
2022-12-26T07:51:53.598Z,10.93
2022-12-26T07:54:21.585Z,10.96
2022-12-26T07:56:49.166Z,10.97
2022-12-26T07:59:18.206Z,10.97
2022-12-26T08:01:45.886Z,10.97
2022-12-26T08:04:14.667Z,10.96
2022-12-26T08:06:42.798Z,11.03
2022-12-26T08:09:16.234Z,11.10
2022-12-26T08:11:45.110Z,11.15
2022-12-26T08:14:16.850Z,11.18
2022-12-26T08:16:49.711Z,11.23
2022-12-26T08:19:19.374Z,11.28
2022-12-26T08:21:47.079Z,11.33
2022-12-26T08:24:16.060Z,11.38
2022-12-26T08:26:43.583Z,11.45
2022-12-26T08:29:11.795Z,11.53
2022-12-26T08:31:39.779Z,11.65
2022-12-26T08:34:08.446Z,11.75
2022-12-26T08:36:36.367Z,11.81
2022-12-26T08:39:04.453Z,11.89
2022-12-26T08:41:32.289Z,12.00
2022-12-26T08:46:47.772Z,12.10
2022-12-26T08:49:15.845Z,12.09
2022-12-26T08:51:43.412Z,12.08
2022-12-26T08:54:11.936Z,12.09
2022-12-26T08:56:39.748Z,12.12
2022-12-26T08:59:07.701Z,12.15
2022-12-26T09:01:35.829Z,12.15
2022-12-26T09:04:06.748Z,12.18
2022-12-26T09:06:37.645Z,12.21
2022-12-26T09:09:08.576Z,12.22
2022-12-26T09:11:36.265Z,12.22
2022-12-26T09:14:05.208Z,12.23
2022-12-26T09:16:40.015Z,12.23
2022-12-26T09:19:17.677Z,12.25
2022-12-26T09:21:46.716Z,12.28
2022-12-26T09:24:18.085Z,12.27
2022-12-26T09:26:46.077Z,12.30
2022-12-26T09:29:14.277Z,12.33
2022-12-26T09:31:42.324Z,12.38
2022-12-26T09:34:10.311Z,12.42
2022-12-26T09:36:39.515Z,12.48
2022-12-26T09:39:08.538Z,12.57
2022-12-26T09:41:57.540Z,12.68
2022-12-26T09:45:05.565Z,12.84
2022-12-26T09:48:06.873Z,13.00
2022-12-26T09:50:43.186Z,13.14
2022-12-26T09:53:36.173Z,13.29
2022-12-26T09:56:36.949Z,13.44
2022-12-26T09:59:12.587Z,13.58
2022-12-26T10:01:41.769Z,13.71
2022-12-26T10:04:29.496Z,13.84
2022-12-26T10:06:58.136Z,13.94
2022-12-26T10:10:05.412Z,14.04
2022-12-26T10:12:34.187Z,14.09
2022-12-26T10:15:39.819Z,14.14
2022-12-26T10:18:53.550Z,14.21
2022-12-26T10:21:52.618Z,14.26
2022-12-26T10:24:27.240Z,14.33
2022-12-26T10:27:03.401Z,14.39
2022-12-26T10:29:41.357Z,14.45
2022-12-26T10:32:27.523Z,14.52
2022-12-26T10:34:55.971Z,14.57
2022-12-26T10:37:43.542Z,14.64
2022-12-26T10:40:27.932Z,14.70
2022-12-26T10:43:02.864Z,14.76
2022-12-26T10:46:17.709Z,14.78
2022-12-26T10:48:46.966Z,14.82
2022-12-26T10:51:15.330Z,14.88
2022-12-26T10:53:52.180Z,14.92
2022-12-26T10:56:24.782Z,14.97
2022-12-26T10:59:04.721Z,15.07
2022-12-26T11:01:38.029Z,15.18
2022-12-26T11:05:02.167Z,15.31
2022-12-26T11:07:17.424Z,15.45
2022-12-26T11:09:46.169Z,15.54
2022-12-26T11:12:52.137Z,15.68
2022-12-26T11:15:48.182Z,15.80
2022-12-26T11:18:47.238Z,15.93
2022-12-26T11:21:25.786Z,16.05
2022-12-26T11:24:19.420Z,16.14
2022-12-26T11:26:47.451Z,16.18
2022-12-26T11:29:20.868Z,16.19
2022-12-26T11:32:02.901Z,16.25
2022-12-26T11:34:46.067Z,16.26
2022-12-26T11:37:44.519Z,16.27
2022-12-26T11:40:25.644Z,16.34
2022-12-26T11:43:00.213Z,16.48
2022-12-26T11:45:37.070Z,16.63
2022-12-26T11:48:24.230Z,16.82
2022-12-26T11:50:53.726Z,16.99
2022-12-26T11:53:23.416Z,17.18
2022-12-26T11:56:05.041Z,17.38
2022-12-26T11:58:35.097Z,17.58
2022-12-26T12:01:10.680Z,17.78
2022-12-26T12:03:50.569Z,17.99
2022-12-26T12:06:49.385Z,18.16
2022-12-26T12:09:25.710Z,18.31
2022-12-26T12:12:14.527Z,18.42
2022-12-26T12:15:30.211Z,18.55
2022-12-26T12:18:13.950Z,18.77
2022-12-26T12:21:38.457Z,19.01
2022-12-26T12:24:21.321Z,19.16
2022-12-26T12:27:32.079Z,19.30
2022-12-26T12:30:15.095Z,19.33
2022-12-26T12:33:44.660Z,19.50
2022-12-26T12:36:37.127Z,19.44
2022-12-26T12:39:26.416Z,19.42
2022-12-26T12:42:23.558Z,19.41
2022-12-26T12:45:05.736Z,19.38
2022-12-26T12:47:55.966Z,19.33
2022-12-26T12:51:07.661Z,19.34
2022-12-26T12:53:56.477Z,19.33
2022-12-26T12:56:44.285Z,19.26
2022-12-26T12:59:48.183Z,19.30
2022-12-26T13:02:49.232Z,19.29
2022-12-26T13:05:34.851Z,19.39
2022-12-26T13:08:19.773Z,19.44
2022-12-26T13:10:59.640Z,19.52
2022-12-26T13:13:42.804Z,19.57
2022-12-26T13:16:19.915Z,19.74
2022-12-26T13:19:01.942Z,19.89
2022-12-26T13:21:40.039Z,19.97
2022-12-26T13:24:26.289Z,20.11
2022-12-26T13:27:04.242Z,20.14
2022-12-26T13:29:31.657Z,20.17
2022-12-26T13:32:00.795Z,20.18
2022-12-26T13:34:28.589Z,20.11
2022-12-26T13:36:59.783Z,19.98
2022-12-26T13:39:34.824Z,19.73
2022-12-26T13:42:34.643Z,19.51
2022-12-26T13:45:36.182Z,19.02
2022-12-26T13:48:17.036Z,18.60
2022-12-26T13:50:55.695Z,18.25
2022-12-26T13:53:34.469Z,17.89
2022-12-26T13:56:04.521Z,17.61
2022-12-26T13:58:55.750Z,17.38
2022-12-26T14:02:42.973Z,17.02
2022-12-26T14:05:44.705Z,16.76
2022-12-26T14:08:39.238Z,16.56
2022-12-26T14:12:03.326Z,16.35
2022-12-26T14:14:54.385Z,16.16
2022-12-26T14:17:50.181Z,15.99
2022-12-26T14:20:49.583Z,15.83
2022-12-26T14:23:45.894Z,15.67
2022-12-26T14:26:21.662Z,15.56
2022-12-26T14:29:27.583Z,15.45
2022-12-26T14:32:21.403Z,15.36
2022-12-26T14:35:21.723Z,15.24
2022-12-26T14:37:56.325Z,15.14
2022-12-26T14:40:37.918Z,15.07
2022-12-26T14:43:17.172Z,15.00
2022-12-26T14:45:52.125Z,14.93
2022-12-26T14:48:24.281Z,14.89
2022-12-26T14:50:56.357Z,14.83
2022-12-26T14:53:27.532Z,14.77
2022-12-26T14:56:05.245Z,14.74
2022-12-26T14:58:39.300Z,14.67
2022-12-26T15:01:13.684Z,14.64
2022-12-26T15:04:02.386Z,14.57
2022-12-26T15:07:56.191Z,14.50
2022-12-26T15:10:47.983Z,14.44
2022-12-26T15:13:46.348Z,14.37
2022-12-26T15:16:48.728Z,14.32
2022-12-26T15:19:44.165Z,14.28
2022-12-26T15:22:36.015Z,14.25
2022-12-26T15:25:34.374Z,14.24
2022-12-26T15:29:01.651Z,14.23
2022-12-26T15:31:50.104Z,14.19
2022-12-26T15:34:40.633Z,14.14
2022-12-26T15:37:17.448Z,14.11
2022-12-26T15:40:11.635Z,14.08
2022-12-26T15:43:26.157Z,14.05
2022-12-26T15:46:35.838Z,13.98
2022-12-26T15:49:32.999Z,13.93
2022-12-26T15:52:18.271Z,13.91
2022-12-26T15:55:59.316Z,13.86
2022-12-26T15:59:26.854Z,13.79
2022-12-26T16:01:55.109Z,13.75
2022-12-26T16:04:27.546Z,13.73
2022-12-26T16:07:09.094Z,13.74
2022-12-26T16:09:44.518Z,13.72
2022-12-26T16:12:27.653Z,13.73
2022-12-26T16:15:09.826Z,13.75
2022-12-26T16:17:39.824Z,13.77
2022-12-26T16:20:44.154Z,13.79
2022-12-26T16:23:18.682Z,13.81
2022-12-26T16:25:55.965Z,13.82
2022-12-26T16:28:34.229Z,13.82
2022-12-26T16:31:02.947Z,13.82
2022-12-26T16:33:43.786Z,13.83
2022-12-26T16:36:20.651Z,13.84
2022-12-26T16:38:49.890Z,13.83
2022-12-26T16:41:25.954Z,13.82
2022-12-26T16:43:56.949Z,13.82
2022-12-26T16:46:30.166Z,13.83
2022-12-26T16:49:01.181Z,13.83
2022-12-26T16:51:49.416Z,13.83
2022-12-26T16:54:38.568Z,13.87
2022-12-26T16:57:20.884Z,13.90
2022-12-26T16:59:49.125Z,13.92
2022-12-26T17:02:34.575Z,13.97
2022-12-26T17:05:07.762Z,14.00
2022-12-26T17:07:43.737Z,14.07
2022-12-26T17:10:25.693Z,14.12
2022-12-26T17:12:56.150Z,14.18
2022-12-26T17:15:28.455Z,14.25
2022-12-26T17:18:31.059Z,14.32
2022-12-26T17:21:17.177Z,14.36
2022-12-26T17:23:46.287Z,14.40
2022-12-26T17:26:22.849Z,14.45
2022-12-26T17:28:51.392Z,14.47
2022-12-26T17:31:43.213Z,14.57
2022-12-26T17:34:29.034Z,14.66
2022-12-26T17:37:19.064Z,14.74
2022-12-26T17:40:03.372Z,14.88
2022-12-26T17:43:13.037Z,14.94
2022-12-26T17:45:46.912Z,14.99
2022-12-26T17:48:15.288Z,15.02
2022-12-26T17:50:46.891Z,15.09
2022-12-26T17:53:32.955Z,15.15
2022-12-26T17:56:07.277Z,15.21
2022-12-26T17:58:35.466Z,15.28
2022-12-26T18:01:04.101Z,15.37
2022-12-26T18:03:32.084Z,15.45
2022-12-26T18:05:59.615Z,15.48
2022-12-26T18:08:40.472Z,15.56
2022-12-26T18:11:12.381Z,15.56
2022-12-26T18:13:41.354Z,15.60
2022-12-26T18:16:16.815Z,15.65
2022-12-26T18:18:46.595Z,15.68
2022-12-26T18:21:15.555Z,15.73
2022-12-26T18:23:44.530Z,15.72
2022-12-26T18:26:29.378Z,15.75
2022-12-26T18:28:57.912Z,15.77
2022-12-26T18:31:29.395Z,15.77
2022-12-26T18:33:57.791Z,15.77
2022-12-26T18:36:34.065Z,15.79
2022-12-26T18:39:02.662Z,15.81
2022-12-26T18:41:30.425Z,15.81
2022-12-26T18:43:58.337Z,15.83
2022-12-26T18:46:28.016Z,15.84
2022-12-26T18:48:57.510Z,15.87
2022-12-26T18:51:26.426Z,15.87
2022-12-26T18:53:54.851Z,15.88
2022-12-26T18:56:23.486Z,15.86
2022-12-26T18:58:57.402Z,15.89
2022-12-26T19:01:26.990Z,15.88
2022-12-26T19:03:55.334Z,15.89
2022-12-26T19:06:26.919Z,15.95
2022-12-26T19:08:56.020Z,15.97
2022-12-26T19:11:23.632Z,15.98
2022-12-26T19:13:51.586Z,16.01
2022-12-26T19:16:19.684Z,16.05
2022-12-26T19:18:47.608Z,16.09
2022-12-26T19:21:16.750Z,16.05
2022-12-26T19:23:47.806Z,16.06
2022-12-26T19:26:18.064Z,16.13
2022-12-26T19:28:54.446Z,16.20
2022-12-26T19:31:23.508Z,16.17
2022-12-26T19:33:51.967Z,16.15
2022-12-26T19:36:19.559Z,16.14
2022-12-26T19:38:47.536Z,16.10
2022-12-26T19:41:15.693Z,16.13
2022-12-26T19:43:43.610Z,16.15
2022-12-26T19:46:17.261Z,16.18
2022-12-26T19:48:45.359Z,16.23
2022-12-26T19:51:16.505Z,16.27
2022-12-26T19:53:45.886Z,16.31
2022-12-26T19:56:18.059Z,16.26
2022-12-26T19:58:50.516Z,16.23
2022-12-26T20:01:26.505Z,16.20
2022-12-26T20:04:00.506Z,16.21
2022-12-26T20:06:32.532Z,16.24
2022-12-26T20:09:04.857Z,16.24
2022-12-26T20:11:35.589Z,16.26
2022-12-26T20:14:06.372Z,16.25
2022-12-26T20:17:04.433Z,16.23
2022-12-26T20:19:24.885Z,16.20
2022-12-26T20:21:53.420Z,16.20
2022-12-26T20:24:23.082Z,16.19
2022-12-26T20:26:51.100Z,16.14
2022-12-26T20:29:19.441Z,16.20
2022-12-26T20:31:47.670Z,16.10
2022-12-26T20:34:16.017Z,16.01
2022-12-26T20:36:43.751Z,15.98
2022-12-26T20:39:16.154Z,15.88
2022-12-26T20:41:44.509Z,15.86
2022-12-26T20:44:16.913Z,15.83
2022-12-26T20:46:45.935Z,15.76
2022-12-26T20:49:14.016Z,15.76
2022-12-26T20:51:44.081Z,15.69
2022-12-26T20:54:15.823Z,15.68
2022-12-26T20:56:44.252Z,15.63
2022-12-26T20:59:12.727Z,15.59
2022-12-26T21:01:46.452Z,15.56
2022-12-26T21:04:22.890Z,15.65
2022-12-26T21:06:51.571Z,15.60
2022-12-26T21:09:19.860Z,15.50
2022-12-26T21:11:47.725Z,15.49
2022-12-26T21:14:22.194Z,15.50
2022-12-26T21:16:58.945Z,15.53
2022-12-26T21:19:29.957Z,15.57
2022-12-26T21:21:57.922Z,15.58
2022-12-26T21:24:31.880Z,15.60
2022-12-26T21:27:00.389Z,15.55
2022-12-26T21:29:32.380Z,15.52
2022-12-26T21:32:02.006Z,15.54
2022-12-26T21:34:32.949Z,15.50
2022-12-26T21:37:19.382Z,15.49
2022-12-26T21:39:47.844Z,15.47
2022-12-26T21:42:15.832Z,15.45
2022-12-26T21:44:44.313Z,15.48
2022-12-26T21:47:12.372Z,15.47
2022-12-26T21:49:40.716Z,15.46
2022-12-26T21:52:10.293Z,15.40
2022-12-26T21:54:56.854Z,15.41
2022-12-26T21:57:25.942Z,15.38
2022-12-26T21:59:57.951Z,15.36
2022-12-26T22:02:54.420Z,15.34
2022-12-26T22:05:28.953Z,15.37
2022-12-26T22:08:01.887Z,15.26
2022-12-26T22:10:54.114Z,15.24
2022-12-26T22:13:24.849Z,15.22
2022-12-26T22:16:07.142Z,15.14
2022-12-26T22:18:45.227Z,15.18
2022-12-26T22:21:20.611Z,15.17
2022-12-26T22:23:50.706Z,15.11
2022-12-26T22:26:22.836Z,15.07
2022-12-26T22:28:56.763Z,15.09
2022-12-26T22:31:35.867Z,15.08
2022-12-26T22:34:10.799Z,15.06
2022-12-26T22:36:42.845Z,15.05
2022-12-26T22:39:19.124Z,15.14
2022-12-26T22:41:49.119Z,15.05
2022-12-26T22:44:21.859Z,15.02
2022-12-26T22:46:55.075Z,15.05
2022-12-26T22:49:23.943Z,15.05
2022-12-26T22:51:52.416Z,15.08
2022-12-26T22:54:20.098Z,15.07
2022-12-26T22:56:48.146Z,15.03
2022-12-26T22:59:33.920Z,14.98
2022-12-26T23:02:04.348Z,15.01
2022-12-26T23:04:32.625Z,15.02
2022-12-26T23:07:01.135Z,15.02
2022-12-26T23:09:29.211Z,15.07
2022-12-26T23:12:16.373Z,15.05
2022-12-26T23:14:46.238Z,15.05
2022-12-26T23:17:37.424Z,15.00
2022-12-26T23:20:25.156Z,15.06
2022-12-26T23:22:53.444Z,15.02
2022-12-26T23:25:21.068Z,14.94
2022-12-26T23:28:15.141Z,14.99
2022-12-26T23:30:42.782Z,14.98
2022-12-26T23:33:10.806Z,15.01
2022-12-26T23:35:40.109Z,15.01
2022-12-26T23:38:08.055Z,14.99
2022-12-26T23:40:35.634Z,14.96
2022-12-26T23:43:03.602Z,15.00
2022-12-26T23:45:31.289Z,14.94
2022-12-26T23:47:59.227Z,14.90
2022-12-26T23:50:27.004Z,14.93
2022-12-26T23:52:54.862Z,14.96
2022-12-26T23:55:22.629Z,15.03
2022-12-26T23:57:50.860Z,15.00
